Athens Highway — 7JPL — position and weather

sailwx.info

Track history (hours):
 
Tides and Currents Weather Stations Pressure Air Temp Water Temp Dewpoint Dewpoint Depression Visibility Wind Speed Wind Dir Waves Ship Positions

Athens Highway

Last reported at 2018-Feb-20 21:30 UTC. Time now 2018-Feb-20 21:50 UTC.
Position N 29°34' W 094°56'.

Length 200 m; draft 8 m.

Type: Cargo ship. MMSI: 432929997.

Date/timePositionNaut miles runAvg speedWind from/ knotsBaromVisibWave heightAir tempDewpointWater temp
2018-Feb-20 21:30N 29°34' W 094°56'612.3
2018-Feb-20 21:00N 29°40' W 094°59'5 9.6
2018-Feb-20 20:30N 29°44' W 095°02'4 7.3
2018-Feb-20 20:00N 29°45' W 095°06'3 6.8
2018-Feb-20 19:30N 29°44' W 095°09'3 5.3
2018-Feb-20 19:00N 29°44' W 095°12'2 4.9
2018-Feb-20 18:30N 29°43' W 095°15'1 0.3
2018-Feb-20 14:01N 29°44' W 095°17'0 0.0
2018-Feb-20 10:07N 29°44' W 095°17'0 0.0
2018-Feb-20 09:46N 29°44' W 095°17'0 0.0
2018-Feb-20 08:10N 29°44' W 095°17'0 0.0
2018-Feb-20 07:58N 29°44' W 095°17'0 0.0
2018-Feb-20 07:22N 29°44' W 095°17'0 0.0
2018-Feb-20 06:55N 29°44' W 095°17'0 0.0
2018-Feb-20 06:10N 29°44' W 095°17'0 0.0
2018-Feb-20 05:49N 29°44' W 095°17'0 0.0
2018-Feb-20 05:28N 29°44' W 095°17'0 0.0
2018-Feb-19 14:55N 29°44' W 095°17'0 0.0
2018-Feb-19 14:13N 29°44' W 095°17'0 0.0
2018-Feb-19 13:58N 29°44' W 095°17'0 0.0
2018-Feb-19 13:28N 29°44' W 095°17'0 0.0
2018-Feb-19 12:58N 29°44' W 095°17'0 0.0
2018-Feb-19 12:28N 29°44' W 095°17'0 0.0
2018-Feb-19 11:52N 29°44' W 095°17'0 0.0
2018-Feb-19 11:22N 29°44' W 095°17'0 0.0
2018-Feb-19 10:58N 29°44' W 095°17'0 0.0
2018-Feb-19 10:22N 29°44' W 095°17'0 0.0
2018-Feb-19 09:52N 29°44' W 095°17'0 0.0
2018-Feb-19 09:28N 29°44' W 095°17'0 0.0
2018-Feb-19 08:52N 29°44' W 095°17'0 0.0
2018-Feb-19 08:19N 29°44' W 095°17'0 0.0
2018-Feb-19 07:58N 29°44' W 095°17'0 0.0
2018-Feb-19 07:25N 29°44' W 095°17'0 0.0
2018-Feb-19 06:58N 29°44' W 095°17'0 0.0
2018-Feb-19 06:16N 29°44' W 095°17'0 0.0
2018-Feb-19 05:58N 29°44' W 095°17'0 0.0
2018-Feb-19 05:28N 29°44' W 095°17'0 0.0
2018-Feb-19 04:52N 29°44' W 095°17'0 0.0
2018-Feb-18 18:13N 29°44' W 095°17'0 0.0
2018-Feb-18 17:43N 29°44' W 095°17'0 0.0
2018-Feb-18 17:25N 29°44' W 095°17'0 0.0
2018-Feb-18 16:40N 29°44' W 095°17'0 0.0
2018-Feb-18 16:19N 29°44' W 095°17'0 0.0
2018-Feb-18 15:58N 29°44' W 095°17'0 0.0
2018-Feb-18 15:10N 29°44' W 095°17'0 0.0
2018-Feb-18 14:46N 29°44' W 095°17'0 0.0
2018-Feb-18 07:52N 29°44' W 095°17'0 0.0
2018-Feb-18 07:01N 29°44' W 095°17'0 0.0
2018-Feb-18 06:55N 29°44' W 095°17'0 0.0
2018-Feb-18 06:28N 29°44' W 095°17'0 0.1
2018-Feb-18 02:27N 29°44' W 095°16'2 5.1
2018-Feb-18 02:00N 29°43' W 095°14'3 5.6
2018-Feb-18 01:30N 29°45' W 095°11'3 6.2
2018-Feb-18 01:00N 29°44' W 095°07'3 6.3
2018-Feb-18 00:30N 29°45' W 095°04'4 8.0
2018-Feb-18 00:00N 29°42' W 095°01'510.6
2018-Feb-17 23:30N 29°38' W 094°58'611.4
2018-Feb-17 23:00N 29°33' W 094°55'713.9
2018-Feb-17 22:30N 29°27' W 094°51'714.1
2018-Feb-17 22:00N 29°21' W 094°47'713.3
2018-Feb-17 21:30N 29°19' W 094°39'5 9.0
2018-Feb-17 20:59N 29°17' W 094°34'4 9.2
2018-Feb-17 20:31N 29°15' W 094°30'3 4.8
2018-Feb-17 19:53N 29°15' W 094°27'0 0.0
2018-Feb-17 19:09N 29°15' W 094°27'0 0.0
2018-Feb-17 18:57N 29°15' W 094°27'0 0.0
2018-Feb-17 18:24N 29°15' W 094°27'0 0.0
2018-Feb-17 18:00N 29°15' W 094°27'0 0.0
2018-Feb-17 17:27N 29°15' W 094°27'0 0.0
2018-Feb-17 12:54N 29°15' W 094°27'0 0.0
2018-Feb-17 12:24N 29°15' W 094°27'0 0.0
2018-Feb-17 11:57N 29°15' W 094°27'0 0.0
2018-Feb-17 11:09N 29°15' W 094°27'0 0.0
2018-Feb-17 10:48N 29°15' W 094°27'0 0.0
2018-Feb-17 10:15N 29°16' W 094°27'0 0.0
2018-Feb-17 09:42N 29°16' W 094°27'0 0.0
2018-Feb-17 09:27N 29°16' W 094°27'0 0.0
2018-Feb-17 08:57N 29°16' W 094°27'0 0.1
2018-Feb-17 08:30N 29°16' W 094°27'0 0.0
2018-Feb-17 07:57N 29°16' W 094°27'0 0.0
2018-Feb-17 07:24N 29°16' W 094°27'0 0.0
2018-Feb-17 07:00N 29°16' W 094°27'0 0.0
2018-Feb-17 06:30N 29°16' W 094°27'0 0.0
2018-Feb-17 06:00N 29°16' W 094°27'0 0.0
2018-Feb-17 05:27N 29°16' W 094°27'0 0.0
2018-Feb-17 05:00N 29°16' W 094°27'0 0.0
2018-Feb-17 04:24N 29°16' W 094°27'0 0.0
2018-Feb-17 04:00N 29°16' W 094°27'0 0.0
2018-Feb-17 03:30N 29°16' W 094°27'0 0.0
2018-Feb-17 02:54N 29°16' W 094°27'0 0.0
2018-Feb-17 02:27N 29°16' W 094°27'0 0.0
2018-Feb-17 01:51N 29°16' W 094°27'0 0.0
2018-Feb-17 01:30N 29°16' W 094°27'0 0.0
2018-Feb-17 00:54N 29°16' W 094°27'0 0.0
2018-Feb-17 00:30N 29°16' W 094°27'0 0.0
2018-Feb-16 23:51N 29°16' W 094°27'0 0.0
2018-Feb-16 23:30N 29°16' W 094°27'0 0.0
2018-Feb-16 22:57N 29°16' W 094°27'0 0.0
2018-Feb-16 22:30N 29°16' W 094°27'0 0.0
2018-Feb-16 22:00N 29°16' W 094°27'0 0.0
2018-Feb-16 21:27N 29°16' W 094°27'0 0.0
2018-Feb-16 21:00N 29°16' W 094°27'0 0.0
2018-Feb-16 16:24N 29°15' W 094°27'0 0.0
2018-Feb-16 15:57N 29°15' W 094°27'0 0.0
2018-Feb-16 15:15N 29°16' W 094°27'0 0.0
2018-Feb-16 12:24N 29°16' W 094°27'0 0.0
2018-Feb-16 10:57N 29°16' W 094°27'0 0.0
2018-Feb-16 10:24N 29°16' W 094°27'0 0.0
2018-Feb-16 08:48N 29°16' W 094°27'0 0.1
2018-Feb-16 08:27N 29°16' W 094°27'0 0.0
2018-Feb-16 07:51N 29°16' W 094°27'0 0.0
2018-Feb-16 07:30N 29°16' W 094°27'0 0.0
2018-Feb-16 07:00N 29°16' W 094°27'0 0.0
2018-Feb-16 06:30N 29°16' W 094°27'0 0.0
2018-Feb-16 05:54N 29°16' W 094°27'0 0.0
2018-Feb-16 04:12N 29°16' W 094°27'0 0.0
2018-Feb-16 04:00N 29°16' W 094°27'0 0.0
2018-Feb-16 03:30N 29°16' W 094°27'0 0.0
2018-Feb-16 02:45N 29°16' W 094°27'0 0.0
2018-Feb-16 02:21N 29°16' W 094°27'0 0.0
2018-Feb-16 02:00N 29°16' W 094°27'0 0.0
2018-Feb-16 01:24N 29°16' W 094°27'0 0.0
2018-Feb-16 00:57N 29°16' W 094°27'0 0.0
2018-Feb-16 00:21N 29°16' W 094°27'0 0.0
2018-Feb-16 00:00N 29°16' W 094°27'0 0.0
2018-Feb-15 23:15N 29°16' W 094°27'0 0.0
2018-Feb-15 21:03N 29°16' W 094°27'0 0.0
2018-Feb-15 21:00N 29°16' W 094°27'0 0.0
2018-Feb-15 18:42N 29°16' W 094°27'0 0.0
2018-Feb-15 11:15N 29°16' W 094°27'0 0.0
2018-Feb-15 11:00N 29°16' W 094°27'0 0.0
2018-Feb-15 09:18N 29°16' W 094°27'0 0.0
2018-Feb-15 09:00N 29°16' W 094°27'0 0.0
2018-Feb-15 08:30N 29°16' W 094°27'0 0.0
2018-Feb-15 08:00N 29°16' W 094°27'0 0.0
2018-Feb-15 07:18N 29°16' W 094°27'0 0.0
2018-Feb-15 06:57N 29°16' W 094°27'0 0.0
2018-Feb-15 06:30N 29°16' W 094°27'0 0.0
2018-Feb-15 06:00N 29°16' W 094°27'0 0.0
2018-Feb-15 05:30N 29°16' W 094°27'0 0.0
2018-Feb-15 05:00N 29°16' W 094°27'0 0.0
2018-Feb-15 04:15N 29°16' W 094°27'0 0.0
2018-Feb-15 04:00N 29°16' W 094°27'0 0.0
2018-Feb-15 03:30N 29°16' W 094°27'0 0.0
2018-Feb-15 03:00N 29°16' W 094°27'0 0.0
2018-Feb-15 02:24N 29°16' W 094°27'0 0.0
2018-Feb-15 02:00N 29°16' W 094°27'0 0.0
2018-Feb-15 01:30N 29°16' W 094°27'0 0.0
2018-Feb-15 00:51N 29°16' W 094°27'0 0.0
2018-Feb-15 00:30N 29°16' W 094°27'0 0.0
2018-Feb-14 23:57N 29°16' W 094°27'0 0.0
2018-Feb-14 23:24N 29°16' W 094°27'0 0.0
2018-Feb-14 22:39N 29°16' W 094°27'0 0.0
2018-Feb-14 22:27N 29°16' W 094°27'0 0.0
2018-Feb-14 21:54N 29°16' W 094°27'0 0.0
2018-Feb-14 20:57N 29°16' W 094°27'0 0.0
2018-Feb-14 20:09N 29°16' W 094°27'0 0.0
2018-Feb-14 19:54N 29°16' W 094°27'0 0.0
2018-Feb-14 19:30N 29°16' W 094°27'0 0.0
2018-Feb-14 18:57N 29°16' W 094°27'0 0.0
2018-Feb-14 18:24N 29°16' W 094°27'0 0.0
2018-Feb-14 18:00N 29°16' W 094°27'0 0.0
2018-Feb-14 17:24N 29°16' W 094°27'0 0.0
2018-Feb-14 17:00N 29°16' W 094°27'0 0.0
2018-Feb-14 16:27N 29°16' W 094°27'0 0.0
2018-Feb-14 15:57N 29°16' W 094°27'0 0.0
2018-Feb-14 13:33N 29°16' W 094°27'0 0.2
2018-Feb-14 13:30N 29°16' W 094°27'0 0.0
2018-Feb-14 13:00N 29°15' W 094°27'0 0.0
2018-Feb-14 11:57N 29°15' W 094°27'0 0.1
2018-Feb-14 11:28N 29°15' W 094°27'3 5.2
2018-Feb-14 10:59N 29°13' W 094°29'2515.7
2018-Feb-14 09:22N 28°59' W 094°05'1116.9
2018-Feb-14 08:44N 28°53' W 093°55'517.1
2018-Feb-14 08:27N 28°50' W 093°51'817.0
2018-Feb-14 07:59N 28°45' W 093°43'817.1
2018-Feb-14 07:30N 28°40' W 093°36'817.2
2018-Feb-14 07:00N 28°35' W 093°28'  
2018-Feb-11 21:46N 25°28' W 079°37'414.2
2018-Feb-11 21:30N 25°32' W 079°36'714.2
2018-Feb-11 21:00N 25°39' W 079°35'714.3
2018-Feb-11 20:30N 25°46' W 079°34'714.3
2018-Feb-11 20:00N 25°53' W 079°33'714.2
2018-Feb-11 19:30N 26°00' W 079°32'714.2
2018-Feb-11 19:00N 26°07' W 079°30'714.3
2018-Feb-11 18:30N 26°14' W 079°29'713.8
2018-Feb-11 18:00N 26°21' W 079°28'  
Track history (hours):
 
Tides and Currents Weather Stations Pressure Air Temp Water Temp Dewpoint Dewpoint Depression Visibility Wind Speed Wind Dir Waves Ship Positions

Athens Highway

Last reported at 2018-Feb-20 21:30 UTC. Time now 2018-Feb-20 21:50 UTC.
Position N 29°34' W 094°56'.

Length 200 m; draft 8 m.

Type: Cargo ship. MMSI: 432929997.

Date/timePositionNaut miles runAvg speedWind from/ knotsBaromVisibWave heightAir tempDewpointWater temp
2018-Feb-20 21:30N 29°34' W 094°56'612.3
2018-Feb-20 21:00N 29°40' W 094°59'5 9.6
2018-Feb-20 20:30N 29°44' W 095°02'4 7.3
2018-Feb-20 20:00N 29°45' W 095°06'3 6.8
2018-Feb-20 19:30N 29°44' W 095°09'3 5.3
2018-Feb-20 19:00N 29°44' W 095°12'2 4.9
2018-Feb-20 18:30N 29°43' W 095°15'1 0.3
2018-Feb-20 14:01N 29°44' W 095°17'0 0.0
2018-Feb-20 10:07N 29°44' W 095°17'0 0.0
2018-Feb-20 09:46N 29°44' W 095°17'0 0.0
2018-Feb-20 08:10N 29°44' W 095°17'0 0.0
2018-Feb-20 07:58N 29°44' W 095°17'0 0.0
2018-Feb-20 07:22N 29°44' W 095°17'0 0.0
2018-Feb-20 06:55N 29°44' W 095°17'0 0.0
2018-Feb-20 06:10N 29°44' W 095°17'0 0.0
2018-Feb-20 05:49N 29°44' W 095°17'0 0.0
2018-Feb-20 05:28N 29°44' W 095°17'0 0.0
2018-Feb-19 14:55N 29°44' W 095°17'0 0.0
2018-Feb-19 14:13N 29°44' W 095°17'0 0.0
2018-Feb-19 13:58N 29°44' W 095°17'0 0.0
2018-Feb-19 13:28N 29°44' W 095°17'0 0.0
2018-Feb-19 12:58N 29°44' W 095°17'0 0.0
2018-Feb-19 12:28N 29°44' W 095°17'0 0.0
2018-Feb-19 11:52N 29°44' W 095°17'0 0.0
2018-Feb-19 11:22N 29°44' W 095°17'0 0.0
2018-Feb-19 10:58N 29°44' W 095°17'0 0.0
2018-Feb-19 10:22N 29°44' W 095°17'0 0.0
2018-Feb-19 09:52N 29°44' W 095°17'0 0.0
2018-Feb-19 09:28N 29°44' W 095°17'0 0.0
2018-Feb-19 08:52N 29°44' W 095°17'0 0.0
2018-Feb-19 08:19N 29°44' W 095°17'0 0.0
2018-Feb-19 07:58N 29°44' W 095°17'0 0.0
2018-Feb-19 07:25N 29°44' W 095°17'0 0.0
2018-Feb-19 06:58N 29°44' W 095°17'0 0.0
2018-Feb-19 06:16N 29°44' W 095°17'0 0.0
2018-Feb-19 05:58N 29°44' W 095°17'0 0.0
2018-Feb-19 05:28N 29°44' W 095°17'0 0.0
2018-Feb-19 04:52N 29°44' W 095°17'0 0.0
2018-Feb-18 18:13N 29°44' W 095°17'0 0.0
2018-Feb-18 17:43N 29°44' W 095°17'0 0.0
2018-Feb-18 17:25N 29°44' W 095°17'0 0.0
2018-Feb-18 16:40N 29°44' W 095°17'0 0.0
2018-Feb-18 16:19N 29°44' W 095°17'0 0.0
2018-Feb-18 15:58N 29°44' W 095°17'0 0.0
2018-Feb-18 15:10N 29°44' W 095°17'0 0.0
2018-Feb-18 14:46N 29°44' W 095°17'0 0.0
2018-Feb-18 07:52N 29°44' W 095°17'0 0.0
2018-Feb-18 07:01N 29°44' W 095°17'0 0.0
2018-Feb-18 06:55N 29°44' W 095°17'0 0.0
2018-Feb-18 06:28N 29°44' W 095°17'0 0.1
2018-Feb-18 02:27N 29°44' W 095°16'2 5.1
2018-Feb-18 02:00N 29°43' W 095°14'3 5.6
2018-Feb-18 01:30N 29°45' W 095°11'3 6.2
2018-Feb-18 01:00N 29°44' W 095°07'3 6.3
2018-Feb-18 00:30N 29°45' W 095°04'4 8.0
2018-Feb-18 00:00N 29°42' W 095°01'510.6
2018-Feb-17 23:30N 29°38' W 094°58'611.4
2018-Feb-17 23:00N 29°33' W 094°55'713.9
2018-Feb-17 22:30N 29°27' W 094°51'714.1
2018-Feb-17 22:00N 29°21' W 094°47'713.3
2018-Feb-17 21:30N 29°19' W 094°39'5 9.0
2018-Feb-17 20:59N 29°17' W 094°34'4 9.2
2018-Feb-17 20:31N 29°15' W 094°30'3 4.8
2018-Feb-17 19:53N 29°15' W 094°27'0 0.0
2018-Feb-17 19:09N 29°15' W 094°27'0 0.0
2018-Feb-17 18:57N 29°15' W 094°27'0 0.0
2018-Feb-17 18:24N 29°15' W 094°27'0 0.0
2018-Feb-17 18:00N 29°15' W 094°27'0 0.0
2018-Feb-17 17:27N 29°15' W 094°27'0 0.0
2018-Feb-17 12:54N 29°15' W 094°27'0 0.0
2018-Feb-17 12:24N 29°15' W 094°27'0 0.0
2018-Feb-17 11:57N 29°15' W 094°27'0 0.0
2018-Feb-17 11:09N 29°15' W 094°27'0 0.0
2018-Feb-17 10:48N 29°15' W 094°27'0 0.0
2018-Feb-17 10:15N 29°16' W 094°27'0 0.0
2018-Feb-17 09:42N 29°16' W 094°27'0 0.0
2018-Feb-17 09:27N 29°16' W 094°27'0 0.0
2018-Feb-17 08:57N 29°16' W 094°27'0 0.1
2018-Feb-17 08:30N 29°16' W 094°27'0 0.0
2018-Feb-17 07:57N 29°16' W 094°27'0 0.0
2018-Feb-17 07:24N 29°16' W 094°27'0 0.0
2018-Feb-17 07:00N 29°16' W 094°27'0 0.0
2018-Feb-17 06:30N 29°16' W 094°27'0 0.0
2018-Feb-17 06:00N 29°16' W 094°27'0 0.0
2018-Feb-17 05:27N 29°16' W 094°27'0 0.0
2018-Feb-17 05:00N 29°16' W 094°27'0 0.0
2018-Feb-17 04:24N 29°16' W 094°27'0 0.0
2018-Feb-17 04:00N 29°16' W 094°27'0 0.0
2018-Feb-17 03:30N 29°16' W 094°27'0 0.0
2018-Feb-17 02:54N 29°16' W 094°27'0 0.0
2018-Feb-17 02:27N 29°16' W 094°27'0 0.0
2018-Feb-17 01:51N 29°16' W 094°27'0 0.0
2018-Feb-17 01:30N 29°16' W 094°27'0 0.0
2018-Feb-17 00:54N 29°16' W 094°27'0 0.0
2018-Feb-17 00:30N 29°16' W 094°27'0 0.0
2018-Feb-16 23:51N 29°16' W 094°27'0 0.0
2018-Feb-16 23:30N 29°16' W 094°27'0 0.0
2018-Feb-16 22:57N 29°16' W 094°27'0 0.0
2018-Feb-16 22:30N 29°16' W 094°27'0 0.0
2018-Feb-16 22:00N 29°16' W 094°27'0 0.0
2018-Feb-16 21:27N 29°16' W 094°27'0 0.0
2018-Feb-16 21:00N 29°16' W 094°27'0 0.0
2018-Feb-16 16:24N 29°15' W 094°27'0 0.0
2018-Feb-16 15:57N 29°15' W 094°27'0 0.0
2018-Feb-16 15:15N 29°16' W 094°27'0 0.0
2018-Feb-16 12:24N 29°16' W 094°27'0 0.0
2018-Feb-16 10:57N 29°16' W 094°27'0 0.0
2018-Feb-16 10:24N 29°16' W 094°27'0 0.0
2018-Feb-16 08:48N 29°16' W 094°27'0 0.1
2018-Feb-16 08:27N 29°16' W 094°27'0 0.0
2018-Feb-16 07:51N 29°16' W 094°27'0 0.0
2018-Feb-16 07:30N 29°16' W 094°27'0 0.0
2018-Feb-16 07:00N 29°16' W 094°27'0 0.0
2018-Feb-16 06:30N 29°16' W 094°27'0 0.0
2018-Feb-16 05:54N 29°16' W 094°27'0 0.0
2018-Feb-16 04:12N 29°16' W 094°27'0 0.0
2018-Feb-16 04:00N 29°16' W 094°27'0 0.0
2018-Feb-16 03:30N 29°16' W 094°27'0 0.0
2018-Feb-16 02:45N 29°16' W 094°27'0 0.0
2018-Feb-16 02:21N 29°16' W 094°27'0 0.0
2018-Feb-16 02:00N 29°16' W 094°27'0 0.0
2018-Feb-16 01:24N 29°16' W 094°27'0 0.0
2018-Feb-16 00:57N 29°16' W 094°27'0 0.0
2018-Feb-16 00:21N 29°16' W 094°27'0 0.0
2018-Feb-16 00:00N 29°16' W 094°27'0 0.0
2018-Feb-15 23:15N 29°16' W 094°27'0 0.0
2018-Feb-15 21:03N 29°16' W 094°27'0 0.0
2018-Feb-15 21:00N 29°16' W 094°27'0 0.0
2018-Feb-15 18:42N 29°16' W 094°27'0 0.0
2018-Feb-15 11:15N 29°16' W 094°27'0 0.0
2018-Feb-15 11:00N 29°16' W 094°27'0 0.0
2018-Feb-15 09:18N 29°16' W 094°27'0 0.0
2018-Feb-15 09:00N 29°16' W 094°27'0 0.0
2018-Feb-15 08:30N 29°16' W 094°27'0 0.0
2018-Feb-15 08:00N 29°16' W 094°27'0 0.0
2018-Feb-15 07:18N 29°16' W 094°27'0 0.0
2018-Feb-15 06:57N 29°16' W 094°27'0 0.0
2018-Feb-15 06:30N 29°16' W 094°27'0 0.0
2018-Feb-15 06:00N 29°16' W 094°27'0 0.0
2018-Feb-15 05:30N 29°16' W 094°27'0 0.0
2018-Feb-15 05:00N 29°16' W 094°27'0 0.0
2018-Feb-15 04:15N 29°16' W 094°27'0 0.0
2018-Feb-15 04:00N 29°16' W 094°27'0 0.0
2018-Feb-15 03:30N 29°16' W 094°27'0 0.0
2018-Feb-15 03:00N 29°16' W 094°27'0 0.0
2018-Feb-15 02:24N 29°16' W 094°27'0 0.0
2018-Feb-15 02:00N 29°16' W 094°27'0 0.0
2018-Feb-15 01:30N 29°16' W 094°27'0 0.0
2018-Feb-15 00:51N 29°16' W 094°27'0 0.0
2018-Feb-15 00:30N 29°16' W 094°27'0 0.0
2018-Feb-14 23:57N 29°16' W 094°27'0 0.0
2018-Feb-14 23:24N 29°16' W 094°27'0 0.0
2018-Feb-14 22:39N 29°16' W 094°27'0 0.0
2018-Feb-14 22:27N 29°16' W 094°27'0 0.0
2018-Feb-14 21:54N 29°16' W 094°27'0 0.0
2018-Feb-14 20:57N 29°16' W 094°27'0 0.0
2018-Feb-14 20:09N 29°16' W 094°27'0 0.0
2018-Feb-14 19:54N 29°16' W 094°27'0 0.0
2018-Feb-14 19:30N 29°16' W 094°27'0 0.0
2018-Feb-14 18:57N 29°16' W 094°27'0 0.0
2018-Feb-14 18:24N 29°16' W 094°27'0 0.0
2018-Feb-14 18:00N 29°16' W 094°27'0 0.0
2018-Feb-14 17:24N 29°16' W 094°27'0 0.0
2018-Feb-14 17:00N 29°16' W 094°27'0 0.0
2018-Feb-14 16:27N 29°16' W 094°27'0 0.0
2018-Feb-14 15:57N 29°16' W 094°27'0 0.0
2018-Feb-14 13:33N 29°16' W 094°27'0 0.2
2018-Feb-14 13:30N 29°16' W 094°27'0 0.0
2018-Feb-14 13:00N 29°15' W 094°27'0 0.0
2018-Feb-14 11:57N 29°15' W 094°27'0 0.1
2018-Feb-14 11:28N 29°15' W 094°27'3 5.2
2018-Feb-14 10:59N 29°13' W 094°29'2515.7
2018-Feb-14 09:22N 28°59' W 094°05'1116.9
2018-Feb-14 08:44N 28°53' W 093°55'517.1
2018-Feb-14 08:27N 28°50' W 093°51'817.0
2018-Feb-14 07:59N 28°45' W 093°43'817.1
2018-Feb-14 07:30N 28°40' W 093°36'817.2
2018-Feb-14 07:00N 28°35' W 093°28'  
2018-Feb-11 21:46N 25°28' W 079°37'414.2
2018-Feb-11 21:30N 25°32' W 079°36'714.2
2018-Feb-11 21:00N 25°39' W 079°35'714.3
2018-Feb-11 20:30N 25°46' W 079°34'714.3
2018-Feb-11 20:00N 25°53' W 079°33'714.2
2018-Feb-11 19:30N 26°00' W 079°32'714.2
2018-Feb-11 19:00N 26°07' W 079°30'714.3
2018-Feb-11 18:30N 26°14' W 079°29'713.8
2018-Feb-11 18:00N 26°21' W 079°28'  

Dump ship's entire track history